International Virtual Aviation Organisation

Russian Federation and Kazakhstan MCD

 
URKA 281000Z 18003MPS 130V220 9999 SCT027 19/07 Q1021 R22/010065 NOSIG RMK QFE761/1015
QNH:(hPa/inHg/mmHg)1021 / 30.15 / 766
QFE:(hPa/inHg/mmHg)1014 / 29.96 / 761
Temperature19
Dew Point7
Visibility> 10000
Weather
Cloud CoverSCT (2700);
Transition Height1100 m./3800 ft.
Transition LevelFL50
SQUAWK